createdAt,value
2022-10-01T00:00:25.972Z,77
2022-10-01T00:01:27.692Z,77
2022-10-01T00:02:29.505Z,77
2022-10-01T00:03:31.594Z,78
2022-10-01T00:04:33.473Z,77
2022-10-01T00:05:35.497Z,77
2022-10-01T00:06:37.533Z,78
2022-10-01T00:07:39.614Z,78
2022-10-01T00:08:41.347Z,79
2022-10-01T00:09:43.354Z,79
2022-10-01T00:10:45.633Z,78
2022-10-01T00:11:47.533Z,78
2022-10-01T00:12:49.374Z,80
2022-10-01T00:13:54.449Z,79
2022-10-01T00:14:56.603Z,81
2022-10-01T00:15:58.633Z,81
2022-10-01T00:17:00.697Z,81
2022-10-01T00:18:03.094Z,80
2022-10-01T00:19:05.494Z,80
2022-10-01T00:20:10.846Z,84
2022-10-01T00:21:09.436Z,84
2022-10-01T00:22:11.414Z,84
2022-10-01T00:23:13.393Z,84
2022-10-01T00:24:15.393Z,84
2022-10-01T00:25:17.673Z,82
2022-10-01T00:26:19.546Z,84
2022-10-01T00:27:21.497Z,85
2022-10-01T00:28:23.540Z,85
2022-10-01T00:29:25.593Z,85
2022-10-01T00:30:27.433Z,85
2022-10-01T00:31:29.642Z,85
2022-10-01T00:32:31.593Z,85
2022-10-01T00:33:33.671Z,85
2022-10-01T00:34:35.435Z,85
2022-10-01T00:35:37.634Z,86
2022-10-01T00:36:39.536Z,86
2022-10-01T00:37:41.817Z,85
2022-10-01T00:38:43.841Z,86
2022-10-01T00:39:45.414Z,86
2022-10-01T00:40:47.654Z,86
2022-10-01T00:41:49.373Z,87
2022-10-01T00:42:51.393Z,86
2022-10-01T00:43:53.734Z,87
2022-10-01T00:44:55.581Z,86
2022-10-01T00:45:57.710Z,87
2022-10-01T00:46:59.673Z,88
2022-10-01T00:48:01.591Z,87
2022-10-01T00:49:03.693Z,88
2022-10-01T00:50:05.534Z,88
2022-10-01T00:51:07.533Z,87
2022-10-01T00:52:09.461Z,88
2022-10-01T00:53:11.702Z,89
2022-10-01T00:54:13.614Z,89
2022-10-01T00:55:15.407Z,88
2022-10-01T00:56:17.533Z,88
2022-10-01T00:57:19.601Z,88
2022-10-01T00:58:21.394Z,89
2022-10-01T00:59:23.393Z,91
2022-10-01T01:03:43.574Z,90
2022-10-01T01:04:45.515Z,90
2022-10-01T01:05:47.696Z,90
2022-10-01T01:06:49.606Z,90
2022-10-01T01:07:51.637Z,89
2022-10-01T01:08:53.475Z,89
2022-10-01T01:09:55.674Z,89
2022-10-01T01:10:57.474Z,89
2022-10-01T01:11:59.734Z,90
2022-10-01T01:13:01.569Z,88
2022-10-01T01:14:03.555Z,88
2022-10-01T01:15:05.515Z,88
2022-10-01T01:16:07.675Z,88
2022-10-01T01:17:09.475Z,88
2022-10-01T01:18:11.803Z,89
2022-10-01T01:19:13.522Z,88
2022-10-01T01:20:15.675Z,89
2022-10-01T01:21:17.975Z,89
2022-10-01T01:22:20.316Z,88
2022-10-01T01:23:22.481Z,88
2022-10-01T01:24:24.662Z,89
2022-10-01T01:25:26.645Z,90
2022-10-01T01:26:28.615Z,90
2022-10-01T01:27:30.690Z,89
2022-10-01T01:28:32.718Z,89
2022-10-01T01:29:34.587Z,89
2022-10-01T01:30:36.536Z,87
2022-10-01T01:31:38.768Z,88
2022-10-01T01:32:40.635Z,87
2022-10-01T01:33:42.656Z,87
2022-10-01T01:34:44.414Z,87
2022-10-01T01:35:46.540Z,88
2022-10-01T01:36:48.575Z,88
2022-10-01T01:37:50.496Z,88
2022-10-01T01:38:52.479Z,88
2022-10-01T01:39:54.694Z,88
2022-10-01T01:40:56.542Z,87
2022-10-01T01:41:58.516Z,87
2022-10-01T01:43:00.625Z,87
2022-10-01T01:44:02.494Z,87
2022-10-01T01:45:04.595Z,87
2022-10-01T01:46:06.548Z,88
2022-10-01T01:47:08.334Z,90
2022-10-01T01:48:13.483Z,89
2022-10-01T01:49:15.495Z,88
2022-10-01T01:50:17.315Z,87
2022-10-01T01:51:19.609Z,89
2022-10-01T01:52:21.655Z,88
2022-10-01T01:53:23.823Z,87
2022-10-01T01:54:25.548Z,85
2022-10-01T01:55:27.402Z,86
2022-10-01T01:56:29.515Z,86
2022-10-01T01:57:31.543Z,87
2022-10-01T01:58:33.454Z,88
2022-10-01T01:59:35.734Z,87
2022-10-01T02:00:38.095Z,88
2022-10-01T02:01:39.765Z,89
2022-10-01T02:02:41.526Z,91
2022-10-01T02:03:43.403Z,90
2022-10-01T02:04:45.614Z,90
2022-10-01T02:05:47.656Z,90
2022-10-01T02:06:49.536Z,91
2022-10-01T02:07:51.835Z,91
2022-10-01T02:08:53.574Z,88
2022-10-01T02:09:55.688Z,88
2022-10-01T02:10:57.815Z,88
2022-10-01T02:11:59.823Z,89
2022-10-01T02:13:01.933Z,90
2022-10-01T02:14:04.854Z,89
2022-10-01T02:15:06.875Z,90
2022-10-01T02:16:08.752Z,90
2022-10-01T02:17:10.650Z,91
2022-10-01T02:18:12.738Z,91
2022-10-01T02:19:14.774Z,91
2022-10-01T02:20:16.580Z,91
2022-10-01T02:21:19.055Z,91
2022-10-01T02:22:21.729Z,91
2022-10-01T02:23:23.776Z,91
2022-10-01T02:24:25.665Z,91
2022-10-01T02:25:27.930Z,91
2022-10-01T02:26:31.216Z,90
2022-10-01T02:27:33.816Z,87
2022-10-01T02:28:35.656Z,89
2022-10-01T02:29:37.860Z,89
2022-10-01T02:30:40.895Z,90
2022-10-01T02:31:42.634Z,90
2022-10-01T02:32:44.634Z,92
2022-10-01T02:33:47.335Z,91
2022-10-01T02:34:49.594Z,89
2022-10-01T02:35:51.739Z,91
2022-10-01T02:36:53.555Z,90
2022-10-01T02:37:55.776Z,90
2022-10-01T02:38:57.762Z,90
2022-10-01T02:39:59.642Z,88
2022-10-01T02:41:01.858Z,88
2022-10-01T02:42:03.935Z,90
2022-10-01T02:43:05.374Z,90
2022-10-01T02:44:07.615Z,89
2022-10-01T02:45:09.658Z,90
2022-10-01T02:46:12.081Z,90
2022-10-01T02:47:13.537Z,92
2022-10-01T02:48:15.636Z,91
2022-10-01T02:49:18.854Z,92
2022-10-01T02:50:20.867Z,93
2022-10-01T02:51:22.895Z,93
2022-10-01T02:52:24.695Z,92
2022-10-01T02:53:26.414Z,93
2022-10-01T02:54:28.634Z,93
2022-10-01T02:55:30.954Z,94
2022-10-01T02:56:32.520Z,93
2022-10-01T02:57:34.732Z,92
2022-10-01T02:58:37.214Z,90
2022-10-01T02:59:39.694Z,89
2022-10-01T03:00:41.755Z,87
2022-10-01T03:01:43.936Z,87
2022-10-01T03:02:46.905Z,86
2022-10-01T03:03:49.237Z,85
2022-10-01T03:04:52.135Z,85
2022-10-01T03:05:54.717Z,87
2022-10-01T03:06:56.544Z,86
2022-10-01T03:07:58.695Z,85
2022-10-01T03:09:00.555Z,86
2022-10-01T03:10:02.875Z,87
2022-10-01T03:11:04.556Z,86
2022-10-01T03:12:06.657Z,86
2022-10-01T03:13:08.455Z,87
2022-10-01T03:14:10.794Z,89
2022-10-01T03:15:13.735Z,87
2022-10-01T03:16:15.936Z,90
2022-10-01T03:17:17.502Z,85
2022-10-01T03:18:19.515Z,85
2022-10-01T03:19:21.694Z,84
2022-10-01T03:20:23.674Z,87
2022-10-01T03:21:25.634Z,79
2022-10-01T03:22:27.674Z,79
2022-10-01T03:23:29.824Z,80
2022-10-01T03:24:31.756Z,80
2022-10-01T03:25:33.615Z,76
2022-10-01T03:26:35.814Z,76
2022-10-01T03:27:37.798Z,82
2022-10-01T03:28:39.742Z,79
2022-10-01T03:29:41.764Z,81
2022-10-01T03:30:46.374Z,81
2022-10-01T03:31:48.627Z,82
2022-10-01T03:32:50.674Z,80
2022-10-01T03:33:52.912Z,80
2022-10-01T03:34:54.574Z,81
2022-10-01T03:35:56.663Z,81
2022-10-01T03:36:58.622Z,84
2022-10-01T03:38:00.534Z,84
2022-10-01T03:39:02.492Z,82
2022-10-01T03:40:04.694Z,82
2022-10-01T03:41:06.595Z,82
2022-10-01T03:42:08.513Z,83
2022-10-01T03:43:10.879Z,81
2022-10-01T03:44:12.615Z,80
2022-10-01T03:45:14.704Z,80
2022-10-01T03:46:16.664Z,81
2022-10-01T03:47:18.615Z,79
2022-10-01T03:48:20.755Z,80
2022-10-01T03:49:23.354Z,81
2022-10-01T03:50:25.655Z,81
2022-10-01T03:51:27.474Z,82
2022-10-01T03:52:29.535Z,82
2022-10-01T03:53:32.155Z,87
2022-10-01T03:54:34.842Z,85
2022-10-01T03:55:36.756Z,85
2022-10-01T03:56:38.596Z,154
2022-10-01T03:57:41.115Z,112
2022-10-01T03:58:42.717Z,140
2022-10-01T03:59:45.162Z,113
2022-10-01T04:00:47.694Z,136
2022-10-01T04:01:52.758Z,195
2022-10-01T04:02:54.751Z,174
2022-10-01T04:03:56.763Z,136
2022-10-01T04:04:58.503Z,94
2022-10-01T04:06:00.482Z,119
2022-10-01T04:07:02.682Z,102
2022-10-01T04:08:04.795Z,90
2022-10-01T04:09:06.716Z,81
2022-10-01T04:10:08.576Z,98
2022-10-01T04:11:10.534Z,147
2022-10-01T04:12:12.935Z,200
2022-10-01T04:13:14.574Z,200
2022-10-01T04:14:18.998Z,164
2022-10-01T04:15:21.054Z,193
2022-10-01T04:16:23.707Z,159
2022-10-01T04:17:25.794Z,122
2022-10-01T04:18:27.814Z,193
2022-10-01T04:19:30.082Z,225
2022-10-01T04:20:32.754Z,350
2022-10-01T04:21:35.036Z,409
2022-10-01T04:22:36.683Z,421
2022-10-01T04:23:38.694Z,347
2022-10-01T04:24:40.694Z,340
2022-10-01T04:25:42.734Z,376
2022-10-01T04:26:44.714Z,385
2022-10-01T04:27:47.063Z,307
2022-10-01T04:28:48.716Z,361
2022-10-01T04:29:50.639Z,362
2022-10-01T04:30:52.554Z,342
2022-10-01T04:31:54.769Z,311
2022-10-01T04:32:56.635Z,300
2022-10-01T04:33:58.734Z,301
2022-10-01T04:35:00.574Z,311
2022-10-01T04:36:02.874Z,320
2022-10-01T04:37:04.555Z,319
2022-10-01T04:38:06.694Z,352
2022-10-01T04:39:08.654Z,383
2022-10-01T04:40:10.855Z,350
2022-10-01T04:41:12.775Z,375
2022-10-01T04:42:14.922Z,393
2022-10-01T04:43:16.715Z,287
2022-10-01T04:44:18.935Z,304
2022-10-01T04:45:20.899Z,397
2022-10-01T04:46:23.142Z,422
2022-10-01T04:47:24.737Z,352
2022-10-01T04:48:26.874Z,333
2022-10-01T04:49:28.574Z,313
2022-10-01T04:50:30.414Z,406
2022-10-01T04:51:32.916Z,418
2022-10-01T04:52:34.934Z,391
2022-10-01T04:53:36.595Z,400
2022-10-01T04:54:38.854Z,437
2022-10-01T04:55:41.180Z,318
2022-10-01T04:56:43.676Z,400
2022-10-01T04:57:46.063Z,432
2022-10-01T04:58:48.717Z,430
2022-10-01T04:59:52.735Z,445
2022-10-01T05:00:58.491Z,445
2022-10-01T05:01:57.136Z,431
2022-10-01T05:02:59.774Z,471
2022-10-01T05:04:02.334Z,501
2022-10-01T05:05:05.335Z,409
2022-10-01T05:06:07.825Z,479
2022-10-01T05:07:09.875Z,480
2022-10-01T05:08:11.714Z,360
2022-10-01T05:09:14.094Z,451
2022-10-01T05:10:17.254Z,466
2022-10-01T05:11:19.615Z,381
2022-10-01T05:12:24.532Z,533
2022-10-01T05:13:24.035Z,491
2022-10-01T05:14:27.607Z,536
2022-10-01T05:15:30.695Z,442
2022-10-01T05:16:33.109Z,416
2022-10-01T05:17:34.794Z,550
2022-10-01T05:18:37.675Z,533
2022-10-01T05:19:40.156Z,627
2022-10-01T05:20:42.207Z,583
2022-10-01T05:21:44.675Z,454
2022-10-01T05:22:47.163Z,463
2022-10-01T05:23:48.897Z,516
2022-10-01T05:24:50.953Z,543
2022-10-01T05:25:52.835Z,442
2022-10-01T05:26:54.895Z,536
2022-10-01T05:27:56.977Z,554
2022-10-01T05:28:58.915Z,583
2022-10-01T05:30:00.774Z,536
2022-10-01T05:31:02.947Z,367
2022-10-01T05:32:05.380Z,468
2022-10-01T05:33:07.766Z,533
2022-10-01T05:34:10.074Z,522
2022-10-01T05:35:12.314Z,434
2022-10-01T05:36:14.895Z,522
2022-10-01T05:37:17.154Z,517
2022-10-01T05:38:18.936Z,508
2022-10-01T05:39:20.915Z,475
2022-10-01T05:40:23.155Z,520
2022-10-01T05:41:26.274Z,469
2022-10-01T05:42:28.954Z,475
2022-10-01T05:43:30.814Z,513
2022-10-01T05:44:35.155Z,474
2022-10-01T05:45:36.822Z,522
2022-10-01T05:46:39.015Z,367
2022-10-01T05:47:41.061Z,445
2022-10-01T05:48:42.777Z,508
2022-10-01T05:49:44.660Z,487
2022-10-01T05:50:47.079Z,404
2022-10-01T05:51:48.495Z,414
2022-10-01T05:52:50.654Z,-1
2022-10-01T05:53:52.715Z,504
2022-10-01T05:54:54.815Z,460
2022-10-01T05:55:56.802Z,490
2022-10-01T05:56:59.277Z,429
2022-10-01T05:58:01.736Z,484
2022-10-01T05:59:03.978Z,512
2022-10-01T06:00:06.936Z,445
2022-10-01T06:01:08.486Z,368
2022-10-01T06:02:10.936Z,409
2022-10-01T06:03:13.044Z,340
2022-10-01T06:04:14.599Z,421
2022-10-01T06:05:16.795Z,453
2022-10-01T06:06:19.814Z,473
2022-10-01T06:07:22.208Z,413
2022-10-01T06:08:25.135Z,550
2022-10-01T06:09:27.823Z,534
2022-10-01T06:10:29.854Z,393
2022-10-01T06:11:32.834Z,499
2022-10-01T06:12:34.914Z,421
2022-10-01T06:13:37.539Z,510
2022-10-01T06:14:39.749Z,561
2022-10-01T06:15:41.638Z,527
2022-10-01T06:16:43.725Z,541
2022-10-01T06:17:45.995Z,570
2022-10-01T06:18:49.152Z,549
2022-10-01T06:19:52.255Z,558
2022-10-01T06:20:55.160Z,520
2022-10-01T06:21:58.020Z,565
2022-10-01T06:23:01.005Z,602
2022-10-01T06:24:03.075Z,549
2022-10-01T06:25:04.685Z,537
2022-10-01T06:26:07.080Z,542
2022-10-01T06:27:09.416Z,508
2022-10-01T06:28:11.857Z,533
2022-10-01T06:29:13.754Z,470
2022-10-01T06:30:15.678Z,455
2022-10-01T06:31:18.019Z,453
2022-10-01T06:32:20.100Z,471
2022-10-01T06:33:21.687Z,517
2022-10-01T06:34:24.083Z,405
2022-10-01T06:35:25.866Z,375
2022-10-01T06:36:28.007Z,438
2022-10-01T06:37:29.956Z,436
2022-10-01T06:38:31.795Z,441
2022-10-01T06:39:33.914Z,441
2022-10-01T06:40:38.621Z,451
2022-10-01T06:41:40.995Z,455
2022-10-01T06:42:42.754Z,504
2022-10-01T06:43:44.975Z,505
2022-10-01T06:44:47.216Z,498
2022-10-01T06:45:50.027Z,517
2022-10-01T06:46:51.655Z,525
2022-10-01T06:47:53.898Z,486
2022-10-01T06:48:56.091Z,543
2022-10-01T06:49:58.006Z,519
2022-10-01T06:50:59.733Z,472
2022-10-01T06:52:02.273Z,443
2022-10-01T06:53:03.804Z,459
2022-10-01T06:54:05.849Z,571
2022-10-01T06:55:07.795Z,454
2022-10-01T06:56:10.355Z,391
2022-10-01T06:57:12.669Z,296
2022-10-01T06:58:14.616Z,540
2022-10-01T06:59:17.038Z,512
2022-10-01T07:00:21.874Z,549
2022-10-01T07:01:24.473Z,509
2022-10-01T07:02:27.064Z,454
2022-10-01T07:03:29.190Z,410
2022-10-01T07:04:32.237Z,363
2022-10-01T07:05:34.960Z,309
2022-10-01T07:06:36.894Z,325
2022-10-01T07:07:39.056Z,326
2022-10-01T07:08:42.335Z,309
2022-10-01T07:09:45.355Z,276
2022-10-01T07:10:48.014Z,209
2022-10-01T07:11:50.134Z,223
2022-10-01T07:12:53.212Z,207
2022-10-01T07:13:55.815Z,171
2022-10-01T07:14:57.755Z,166
2022-10-01T07:15:59.767Z,154
2022-10-01T07:17:01.915Z,136
2022-10-01T07:18:03.774Z,133
2022-10-01T07:19:06.145Z,132
2022-10-01T07:20:08.055Z,142
2022-10-01T07:21:10.178Z,129
2022-10-01T07:22:12.054Z,123
2022-10-01T07:23:14.323Z,118
2022-10-01T07:24:17.355Z,117
2022-10-01T07:25:20.134Z,116
2022-10-01T07:26:22.859Z,116
2022-10-01T07:27:25.294Z,117
2022-10-01T07:28:28.509Z,117
2022-10-01T07:29:31.141Z,117
2022-10-01T07:30:34.595Z,117
2022-10-01T07:31:37.584Z,116
2022-10-01T07:32:39.164Z,116
2022-10-01T07:33:41.761Z,113
2022-10-01T07:34:43.995Z,111
2022-10-01T07:35:46.175Z,109
2022-10-01T07:36:48.968Z,107
2022-10-01T07:37:50.996Z,108
2022-10-01T07:38:54.295Z,107
2022-10-01T07:39:57.136Z,102
2022-10-01T07:40:59.354Z,100
2022-10-01T07:42:02.075Z,99
2022-10-01T07:43:04.834Z,98
2022-10-01T07:44:08.214Z,99
2022-10-01T07:45:11.454Z,99
2022-10-01T07:46:14.474Z,99
2022-10-01T07:47:17.481Z,97
2022-10-01T07:48:20.426Z,97
2022-10-01T07:49:23.415Z,96
2022-10-01T07:50:26.282Z,92
2022-10-01T07:51:30.015Z,93
2022-10-01T07:52:32.228Z,90
2022-10-01T07:53:35.334Z,89
2022-10-01T07:54:37.654Z,89
2022-10-01T07:55:40.394Z,88
2022-10-01T07:56:44.335Z,87
2022-10-01T07:57:46.997Z,86
2022-10-01T07:58:49.376Z,84
2022-10-01T07:59:55.633Z,84
2022-10-01T08:00:54.619Z,81
2022-10-01T08:01:56.951Z,82
2022-10-01T08:03:00.294Z,80
2022-10-01T08:04:03.866Z,79
2022-10-01T08:05:06.515Z,76
2022-10-01T08:06:12.375Z,76
2022-10-01T08:07:15.194Z,75
2022-10-01T08:08:18.605Z,76
2022-10-01T08:09:21.574Z,74
2022-10-01T08:10:24.498Z,72
2022-10-01T08:11:27.355Z,73
2022-10-01T08:12:30.194Z,71
2022-10-01T08:13:33.306Z,71
2022-10-01T08:14:36.734Z,71
2022-10-01T08:15:39.155Z,68
2022-10-01T08:16:41.575Z,67
2022-10-01T08:17:44.555Z,65
2022-10-01T08:18:47.877Z,65
2022-10-01T08:19:51.560Z,61
2022-10-01T08:20:54.711Z,62
2022-10-01T08:21:58.156Z,64
2022-10-01T08:23:00.894Z,64
2022-10-01T08:24:04.706Z,61
2022-10-01T08:25:07.155Z,62
2022-10-01T08:26:09.034Z,62
2022-10-01T08:27:11.455Z,62
2022-10-01T08:28:14.145Z,62
2022-10-01T08:29:17.674Z,62
2022-10-01T08:30:20.735Z,62
2022-10-01T08:31:23.545Z,64
2022-10-01T08:32:26.178Z,64
2022-10-01T08:33:29.340Z,62
2022-10-01T08:34:32.007Z,62
2022-10-01T08:35:35.174Z,62
2022-10-01T08:36:38.874Z,61
2022-10-01T08:37:41.305Z,61
2022-10-01T08:38:44.422Z,61
2022-10-01T08:39:47.377Z,60
2022-10-01T08:40:50.274Z,59
2022-10-01T08:41:53.443Z,59
2022-10-01T08:42:56.454Z,60
2022-10-01T08:43:59.095Z,61
2022-10-01T08:45:01.352Z,60
2022-10-01T08:46:04.430Z,59
2022-10-01T08:47:07.376Z,58
2022-10-01T08:48:10.374Z,58
2022-10-01T08:49:13.594Z,59
2022-10-01T08:50:16.162Z,59
2022-10-01T08:51:18.994Z,60
2022-10-01T08:52:22.081Z,59
2022-10-01T08:53:25.056Z,60
2022-10-01T08:54:27.454Z,60
2022-10-01T08:55:30.538Z,60
2022-10-01T08:56:34.091Z,59
2022-10-01T08:57:36.464Z,60
2022-10-01T08:58:39.292Z,60
2022-10-01T08:59:42.655Z,61
2022-10-01T09:00:45.405Z,62
2022-10-01T09:01:48.215Z,62
2022-10-01T09:02:51.191Z,61
2022-10-01T09:03:53.169Z,62
2022-10-01T09:04:58.984Z,64
2022-10-01T09:05:56.916Z,65
2022-10-01T09:06:59.014Z,74
2022-10-01T09:08:01.962Z,74
2022-10-01T09:09:03.992Z,70
2022-10-01T09:10:06.697Z,64
2022-10-01T09:11:08.938Z,62
2022-10-01T09:12:10.974Z,65
2022-10-01T09:13:12.934Z,60
2022-10-01T09:14:15.396Z,58
2022-10-01T09:15:18.476Z,58
2022-10-01T09:16:21.420Z,57
2022-10-01T09:17:25.007Z,58
2022-10-01T09:18:28.394Z,58
2022-10-01T09:19:31.543Z,59
2022-10-01T09:20:34.114Z,59
2022-10-01T09:21:36.375Z,57
2022-10-01T09:22:37.899Z,57
2022-10-01T09:23:40.894Z,58
2022-10-01T09:24:42.914Z,57
2022-10-01T09:25:45.374Z,57
2022-10-01T09:26:50.113Z,60
2022-10-01T09:27:52.093Z,70
2022-10-01T09:28:55.354Z,67
2022-10-01T09:29:58.017Z,62
2022-10-01T09:31:00.036Z,59
2022-10-01T09:32:01.869Z,56
2022-10-01T09:33:04.014Z,55
2022-10-01T09:34:05.938Z,54
2022-10-01T09:35:07.936Z,54
2022-10-01T09:36:09.975Z,54
2022-10-01T09:37:11.736Z,54
2022-10-01T09:38:14.114Z,54
2022-10-01T09:39:16.154Z,53
2022-10-01T09:40:18.214Z,53
2022-10-01T09:41:19.659Z,54
2022-10-01T09:42:21.898Z,54
2022-10-01T09:43:24.189Z,54
2022-10-01T09:44:25.976Z,55
2022-10-01T09:45:27.932Z,54
2022-10-01T09:46:29.834Z,55
2022-10-01T09:47:31.837Z,57
2022-10-01T09:48:33.602Z,55
2022-10-01T09:49:35.702Z,55
2022-10-01T09:50:37.856Z,55
2022-10-01T09:51:40.776Z,54
2022-10-01T09:52:41.733Z,54
2022-10-01T09:53:43.780Z,53
2022-10-01T09:54:46.194Z,53
2022-10-01T09:55:47.755Z,54
2022-10-01T09:56:49.875Z,54
2022-10-01T09:57:51.719Z,54
2022-10-01T09:58:53.814Z,54
2022-10-01T09:59:55.745Z,54
2022-10-01T10:00:57.860Z,54
2022-10-01T10:01:59.842Z,56
2022-10-01T10:03:02.183Z,55
2022-10-01T10:04:04.214Z,54
2022-10-01T10:05:06.085Z,53
2022-10-01T10:06:07.694Z,56
2022-10-01T10:07:11.052Z,53
2022-10-01T10:08:12.934Z,53
2022-10-01T10:09:14.678Z,53
2022-10-01T10:10:17.003Z,52
2022-10-01T10:11:19.059Z,52
2022-10-01T10:12:20.955Z,53
2022-10-01T10:13:23.064Z,52
2022-10-01T10:14:25.029Z,53
2022-10-01T10:15:26.974Z,54
2022-10-01T10:16:28.730Z,52
2022-10-01T10:17:30.855Z,52
2022-10-01T10:18:32.975Z,51
2022-10-01T10:19:35.043Z,51
2022-10-01T10:20:37.138Z,51
2022-10-01T10:21:38.754Z,51
2022-10-01T10:22:40.814Z,50
2022-10-01T10:23:43.235Z,50
2022-10-01T10:24:45.170Z,51
2022-10-01T10:25:46.975Z,51
2022-10-01T10:26:48.692Z,51
2022-10-01T10:27:50.899Z,52
2022-10-01T10:28:53.185Z,52
2022-10-01T10:29:55.013Z,52
2022-10-01T10:30:56.975Z,52
2022-10-01T10:31:58.898Z,52
2022-10-01T10:33:03.619Z,52
2022-10-01T10:34:06.209Z,52
2022-10-01T10:35:08.036Z,53
2022-10-01T10:36:09.715Z,51
2022-10-01T10:37:12.097Z,50
2022-10-01T10:38:14.556Z,50
2022-10-01T10:39:17.254Z,51
2022-10-01T10:40:19.875Z,50
2022-10-01T10:41:21.865Z,49
2022-10-01T10:42:24.340Z,47
2022-10-01T10:43:26.063Z,47
2022-10-01T10:44:27.864Z,48
2022-10-01T10:45:29.795Z,47
2022-10-01T10:46:32.145Z,47
2022-10-01T10:47:34.014Z,45
2022-10-01T10:48:35.774Z,45
2022-10-01T10:49:37.934Z,44
2022-10-01T10:50:39.994Z,45
2022-10-01T10:51:41.862Z,45
2022-10-01T10:52:45.769Z,46
2022-10-01T10:53:46.267Z,46
2022-10-01T10:54:48.979Z,46
2022-10-01T10:55:50.814Z,47
2022-10-01T10:56:53.318Z,48
2022-10-01T10:57:57.836Z,48
2022-10-01T10:58:58.155Z,48
2022-10-01T10:59:59.865Z,48
2022-10-01T11:01:01.984Z,49
2022-10-01T11:02:04.276Z,48
2022-10-01T11:03:06.237Z,48
2022-10-01T11:04:07.643Z,49
2022-10-01T11:05:09.894Z,48
2022-10-01T11:06:11.794Z,48
2022-10-01T11:07:14.235Z,48
2022-10-01T11:08:17.864Z,49
2022-10-01T11:09:19.355Z,48
2022-10-01T11:10:21.177Z,49
2022-10-01T11:11:24.015Z,49
2022-10-01T11:12:25.735Z,49
2022-10-01T11:13:27.875Z,48
2022-10-01T11:14:30.239Z,46
2022-10-01T11:15:32.195Z,45
2022-10-01T11:16:34.153Z,45
2022-10-01T11:17:35.713Z,44
2022-10-01T11:18:37.911Z,46
2022-10-01T11:19:40.083Z,45
2022-10-01T11:20:41.975Z,45
2022-10-01T11:21:43.803Z,46
2022-10-01T11:22:45.894Z,45
2022-10-01T11:23:48.053Z,46
2022-10-01T11:24:49.920Z,45
2022-10-01T11:25:51.994Z,45
2022-10-01T11:26:53.991Z,44
2022-10-01T11:27:56.279Z,44
2022-10-01T11:28:58.836Z,43
2022-10-01T11:30:01.127Z,44
2022-10-01T11:31:02.886Z,44
2022-10-01T11:32:05.399Z,43
2022-10-01T11:33:07.851Z,43
2022-10-01T11:34:10.434Z,44
2022-10-01T11:35:12.976Z,42
2022-10-01T11:36:15.196Z,43
2022-10-01T11:37:18.138Z,43
2022-10-01T11:38:20.022Z,44
2022-10-01T11:39:21.978Z,44
2022-10-01T11:40:24.378Z,44
2022-10-01T11:41:26.914Z,44
2022-10-01T11:42:28.954Z,43
2022-10-01T11:43:30.914Z,43
2022-10-01T11:44:32.855Z,43
2022-10-01T11:45:34.855Z,43
2022-10-01T11:46:37.740Z,44
2022-10-01T11:47:38.907Z,44
2022-10-01T11:48:40.795Z,43
2022-10-01T11:49:43.334Z,43
2022-10-01T11:50:45.835Z,43
2022-10-01T11:51:48.357Z,43
2022-10-01T11:52:50.969Z,43
2022-10-01T11:53:52.876Z,44
2022-10-01T11:54:56.304Z,43
2022-10-01T11:55:57.046Z,42
2022-10-01T11:56:59.368Z,43
2022-10-01T11:58:02.016Z,43
2022-10-01T11:59:04.374Z,44
2022-10-01T12:00:07.125Z,44
2022-10-01T12:01:08.857Z,43
2022-10-01T12:02:11.192Z,42
2022-10-01T12:03:12.802Z,43
2022-10-01T12:04:14.999Z,42
2022-10-01T12:05:17.129Z,43
2022-10-01T12:06:22.068Z,43
2022-10-01T12:07:20.815Z,44
2022-10-01T12:08:22.928Z,44
2022-10-01T12:09:24.895Z,43
2022-10-01T12:10:27.114Z,42
2022-10-01T12:11:29.095Z,42
2022-10-01T12:12:30.820Z,42
2022-10-01T12:13:32.989Z,43
2022-10-01T12:14:34.856Z,43
2022-10-01T12:15:36.962Z,43
2022-10-01T12:16:39.613Z,43
2022-10-01T12:17:41.022Z,42
2022-10-01T12:18:42.974Z,43
2022-10-01T12:19:44.937Z,42
2022-10-01T12:20:47.086Z,43
2022-10-01T12:21:49.273Z,43
2022-10-01T12:22:51.004Z,43
2022-10-01T12:23:52.867Z,42
2022-10-01T12:24:54.874Z,42
2022-10-01T12:25:56.694Z,42
2022-10-01T12:26:58.913Z,43
2022-10-01T12:28:01.028Z,42
2022-10-01T12:29:02.752Z,42
2022-10-01T12:30:04.734Z,42
2022-10-01T12:31:06.918Z,43
2022-10-01T12:32:09.068Z,43
2022-10-01T12:33:11.134Z,43
2022-10-01T12:34:12.836Z,43
2022-10-01T12:35:14.897Z,42
2022-10-01T12:36:16.835Z,42
2022-10-01T12:37:18.718Z,43
2022-10-01T12:38:21.115Z,42
2022-10-01T12:39:23.214Z,43
2022-10-01T12:40:25.134Z,42
2022-10-01T12:41:26.954Z,43
2022-10-01T12:42:28.823Z,43
2022-10-01T12:43:31.335Z,43
2022-10-01T12:44:33.402Z,43
2022-10-01T12:45:34.670Z,44
2022-10-01T12:46:37.152Z,43
2022-10-01T12:47:38.813Z,43
2022-10-01T12:48:40.977Z,43
2022-10-01T12:49:43.015Z,43
2022-10-01T12:50:45.056Z,43
2022-10-01T12:51:47.036Z,43
2022-10-01T12:52:48.938Z,44
2022-10-01T12:53:51.154Z,44
2022-10-01T12:54:53.454Z,44
2022-10-01T12:55:56.031Z,43
2022-10-01T12:56:58.055Z,43
2022-10-01T12:57:59.774Z,44
2022-10-01T12:59:01.775Z,43
2022-10-01T13:00:03.995Z,43
2022-10-01T13:01:06.076Z,44
2022-10-01T13:02:07.860Z,44
2022-10-01T13:03:09.900Z,44
2022-10-01T13:04:11.778Z,44
2022-10-01T13:05:14.204Z,45
2022-10-01T13:06:16.315Z,44
2022-10-01T13:07:19.037Z,44
2022-10-01T13:08:21.214Z,44
2022-10-01T13:09:23.254Z,43
2022-10-01T13:10:26.015Z,44
2022-10-01T13:11:27.980Z,44
2022-10-01T13:12:29.854Z,44
2022-10-01T13:13:31.976Z,44
2022-10-01T13:14:34.016Z,44
2022-10-01T13:15:36.676Z,44
2022-10-01T13:16:39.383Z,43
2022-10-01T13:17:41.134Z,43
2022-10-01T13:18:43.054Z,43
2022-10-01T13:19:44.942Z,43
2022-10-01T13:20:46.824Z,43
2022-10-01T13:21:48.952Z,43
2022-10-01T13:22:51.056Z,44
2022-10-01T13:23:53.015Z,44
2022-10-01T13:24:54.948Z,43
2022-10-01T13:25:56.845Z,43
2022-10-01T13:26:58.794Z,43
2022-10-01T13:28:00.881Z,43
2022-10-01T13:29:03.154Z,43
2022-10-01T13:30:04.975Z,43
2022-10-01T13:31:06.940Z,43
2022-10-01T13:32:08.754Z,43
2022-10-01T13:33:10.982Z,43
2022-10-01T13:34:13.135Z,43
2022-10-01T13:35:15.238Z,43
2022-10-01T13:36:16.935Z,43
2022-10-01T13:37:18.881Z,43
2022-10-01T13:38:20.900Z,43
2022-10-01T13:39:23.034Z,43
2022-10-01T13:40:25.098Z,43
2022-10-01T13:41:27.954Z,43
2022-10-01T13:42:30.433Z,43
2022-10-01T13:43:31.858Z,43
2022-10-01T13:44:34.634Z,43
2022-10-01T13:45:37.034Z,43
2022-10-01T13:46:39.168Z,43
2022-10-01T13:47:40.755Z,43
2022-10-01T13:48:42.854Z,43
2022-10-01T13:49:45.053Z,43
2022-10-01T13:50:47.139Z,43
2022-10-01T13:51:49.018Z,42
2022-10-01T13:52:51.178Z,42
2022-10-01T13:53:53.368Z,42
2022-10-01T13:54:54.950Z,42
2022-10-01T13:55:56.814Z,42
2022-10-01T13:56:59.115Z,42
2022-10-01T13:58:01.094Z,43
2022-10-01T13:59:03.054Z,42
2022-10-01T14:00:04.914Z,42
2022-10-01T14:01:09.239Z,42
2022-10-01T14:02:09.233Z,42
2022-10-01T14:03:11.098Z,42
2022-10-01T14:04:13.094Z,42
2022-10-01T14:05:15.138Z,43
2022-10-01T14:06:17.774Z,44
2022-10-01T14:07:20.016Z,43
2022-10-01T14:08:21.854Z,42
2022-10-01T14:09:23.945Z,42
2022-10-01T14:10:26.095Z,42
2022-10-01T14:11:28.035Z,42
2022-10-01T14:12:30.223Z,42
2022-10-01T14:13:31.761Z,43
2022-10-01T14:14:34.198Z,42
2022-10-01T14:15:37.220Z,43
2022-10-01T14:16:39.195Z,43
2022-10-01T14:17:40.934Z,42
2022-10-01T14:18:43.053Z,43
2022-10-01T14:19:45.283Z,43
2022-10-01T14:20:48.316Z,43
2022-10-01T14:21:50.261Z,43
2022-10-01T14:22:51.963Z,43
2022-10-01T14:23:54.135Z,42
2022-10-01T14:24:56.729Z,43
2022-10-01T14:25:58.986Z,43
2022-10-01T14:27:01.242Z,42
2022-10-01T14:28:03.311Z,42
2022-10-01T14:29:06.241Z,43
2022-10-01T14:30:08.455Z,43
2022-10-01T14:31:11.564Z,42
2022-10-01T14:32:14.275Z,44
2022-10-01T14:33:16.315Z,43
2022-10-01T14:34:18.874Z,43
2022-10-01T14:35:21.444Z,43
2022-10-01T14:36:24.611Z,43
2022-10-01T14:37:27.594Z,43
2022-10-01T14:38:30.381Z,43
2022-10-01T14:39:33.094Z,43
2022-10-01T14:40:35.014Z,44
2022-10-01T14:41:37.455Z,43
2022-10-01T14:42:40.422Z,43
2022-10-01T14:43:46.357Z,43